Time;durP1;ratioP1;P1;durP2;ratioP2;P2;SDS_P1;SDS_P2;PMS_P1;PMS_P2;Temp;Humidity;BMP_temperature;BMP_pressure;BME280_temperature;BME280_humidity;BME280_pressure;Samples;Min_cycle;Max_cycle;Signal;HPM_P1;HPM_P2
2022/09/11 00:01:32;;;;;;;1.48;0.88;;;;;;;20.80;55.90;93319.34;5006621;28;20046;-90
2022/09/11 00:03:57;;;;;;;2.78;0.90;;;;;;;20.81;55.77;93307.81;4976482;28;20483;-86
2022/09/11 00:06:25;;;;;;;1.50;0.80;;;;;;;20.79;55.71;93307.63;4981874;28;20057;-85
2022/09/11 00:08:52;;;;;;;1.30;0.90;;;;;;;20.80;55.69;93317.34;5039656;28;20047;-87
2022/09/11 00:11:19;;;;;;;1.38;0.80;;;;;;;20.80;55.53;93320.09;5058277;28;20113;-88
2022/09/11 00:13:47;;;;;;;1.30;1.10;;;;;;;20.81;55.58;93304.34;5029328;28;20037;-88
2022/09/11 00:16:20;;;;;;;1.30;0.80;;;;;;;20.80;55.74;93306.34;5046002;28;20466;-86
2022/09/11 00:18:45;;;;;;;1.05;0.90;;;;;;;20.79;55.69;93309.63;5046612;28;20449;-85
2022/09/11 00:21:11;;;;;;;1.85;0.80;;;;;;;20.81;55.83;93304.34;5013169;28;20057;-85
2022/09/11 00:23:36;;;;;;;0.93;0.75;;;;;;;20.80;55.75;93302.84;5013228;28;20037;-85
2022/09/11 00:26:02;;;;;;;1.38;0.90;;;;;;;20.77;55.68;93312.19;5046120;28;20040;-85
2022/09/11 00:28:27;;;;;;;0.70;0.70;;;;;;;20.81;55.68;93309.84;5046124;28;20478;-88
2022/09/11 00:31:03;;;;;;;1.25;0.90;;;;;;;20.79;55.71;93299.38;5046371;28;20411;-92
2022/09/11 00:33:29;;;;;;;1.15;0.98;;;;;;;20.80;55.69;93305.59;5030030;28;20094;-91
2022/09/11 00:35:57;;;;;;;1.15;0.90;;;;;;;20.77;55.65;93304.69;5045598;28;20037;-85
2022/09/11 00:38:25;;;;;;;1.17;0.90;;;;;;;20.79;55.61;93304.13;5045491;28;20535;-86
2022/09/11 00:40:51;;;;;;;1.40;1.00;;;;;;;20.79;55.67;93304.88;5029887;28;20036;-85
2022/09/11 00:43:16;;;;;;;2.40;1.20;;;;;;;20.79;55.33;93310.38;5061654;28;20033;-85
2022/09/11 00:45:43;;;;;;;1.30;0.88;;;;;;;20.78;55.55;93308.16;5029461;28;20025;-87
2022/09/11 00:48:08;;;;;;;1.00;0.73;;;;;;;20.77;55.87;93309.44;5028339;28;20404;-84
2022/09/11 00:50:35;;;;;;;1.33;0.90;;;;;;;20.77;55.78;93303.94;5029813;28;20033;-84
2022/09/11 00:53:06;;;;;;;1.00;0.90;;;;;;;20.77;55.61;93306.69;5029017;28;20045;-84
2022/09/11 00:55:32;;;;;;;1.17;0.70;;;;;;;20.78;55.85;93321.91;5013661;28;20399;-93
2022/09/11 00:58:02;;;;;;;1.77;0.90;;;;;;;20.77;55.68;93315.66;5012678;28;20515;-85
2022/09/11 01:00:28;;;;;;;2.25;0.85;;;;;;;20.79;55.69;93309.63;5009133;28;20538;-85
2022/09/11 01:02:53;;;;;;;2.30;1.00;;;;;;;20.77;55.52;93301.94;5030411;28;20033;-85
2022/09/11 01:05:21;;;;;;;0.82;0.80;;;;;;;20.80;55.72;93302.84;5012590;28;20040;-92
2022/09/11 01:07:46;;;;;;;1.63;0.95;;;;;;;20.77;55.64;93298.44;5062491;28;20044;-86
2022/09/11 01:10:12;;;;;;;0.73;0.70;;;;;;;20.76;55.93;93289.47;5044610;28;20503;-91
2022/09/11 01:12:56;;;;;;;1.98;0.70;;;;;;;20.76;55.87;93288.72;5043646;28;20118;-86
2022/09/11 01:15:31;;;;;;;1.17;1.00;;;;;;;20.76;55.73;93294.22;5046539;28;20053;-85
2022/09/11 01:18:06;;;;;;;1.23;1.00;;;;;;;20.76;55.62;93286.72;5056361;28;20167;-85
2022/09/11 01:20:45;;;;;;;0.88;0.60;;;;;;;20.75;55.36;93282.50;5052924;28;20037;-85
2022/09/11 01:23:18;;;;;;;1.60;0.80;;;;;;;20.75;55.56;93292.75;5029281;28;20033;-85
2022/09/11 01:25:50;;;;;;;1.55;0.60;;;;;;;20.75;55.47;93279.75;5025745;28;20095;-87
2022/09/11 01:28:22;;;;;;;1.33;0.90;;;;;;;20.75;55.55;93279.75;5027045;28;20041;-86
2022/09/11 01:30:53;;;;;;;1.35;0.85;;;;;;;20.75;55.62;93285.25;5026257;28;20103;-88
2022/09/11 01:33:27;;;;;;;0.93;0.70;;;;;;;20.75;55.80;93276.25;5016139;28;20233;-90
2022/09/11 01:36:01;;;;;;;1.13;0.85;;;;;;;20.74;55.67;93264.53;5029047;28;20051;-86
2022/09/11 01:38:45;;;;;;;1.15;0.70;;;;;;;20.76;55.59;93275.00;5055334;28;20072;-91
2022/09/11 01:41:14;;;;;;;1.25;0.70;;;;;;;20.75;55.76;93276.25;5042733;28;20038;-90
2022/09/11 01:43:43;;;;;;;1.23;0.90;;;;;;;20.74;55.74;93281.00;5031280;28;20060;-89
2022/09/11 01:46:09;;;;;;;1.65;0.75;;;;;;;20.76;55.67;93278.47;5012865;28;20041;-85
2022/09/11 01:48:45;;;;;;;1.40;1.05;;;;;;;20.74;55.80;93281.00;5008993;28;20408;-85
2022/09/11 01:51:21;;;;;;;1.40;0.85;;;;;;;20.74;55.64;93283.75;5022801;28;20077;-88
2022/09/11 01:53:47;;;;;;;1.02;0.77;;;;;;;20.76;55.60;93280.47;5040492;28;20116;-85
2022/09/11 01:56:19;;;;;;;1.15;0.93;;;;;;;20.75;55.61;93279.75;5027425;28;20400;-87
2022/09/11 01:58:44;;;;;;;1.35;0.90;;;;;;;20.74;55.62;93272.78;5013311;28;20042;-85
2022/09/11 02:01:17;;;;;;;1.00;0.88;;;;;;;20.74;55.66;93266.53;5065664;28;20408;-85
2022/09/11 02:03:45;;;;;;;0.80;0.60;;;;;;;20.73;55.60;93276.78;5029167;28;20092;-89
2022/09/11 02:06:16;;;;;;;1.50;0.75;;;;;;;20.74;55.69;93270.03;5032434;28;20045;-85
2022/09/11 02:08:45;;;;;;;1.77;1.10;;;;;;;20.76;55.61;93261.25;5026902;28;20045;-85
2022/09/11 02:11:12;;;;;;;2.30;1.00;;;;;;;20.74;55.69;93263.78;5049077;28;20025;-84
2022/09/11 02:13:49;;;;;;;1.00;0.85;;;;;;;20.74;55.55;93261.78;5058183;28;20059;-87
2022/09/11 02:16:20;;;;;;;1.08;0.60;;;;;;;20.75;55.53;93274.25;5048304;28;20404;-89
2022/09/11 02:19:00;;;;;;;1.90;0.90;;;;;;;20.72;55.84;93258.81;5048593;28;20488;-86
2022/09/11 02:21:26;;;;;;;1.25;0.90;;;;;;;20.73;55.36;93268.53;5031898;28;20029;-91
2022/09/11 02:23:54;;;;;;;1.45;0.70;;;;;;;20.76;55.63;93253.00;5028896;28;20471;-85
2022/09/11 02:26:20;;;;;;;1.42;0.80;;;;;;;20.72;55.61;93250.59;5012767;28;20041;-84
2022/09/11 02:28:46;;;;;;;1.30;0.90;;;;;;;20.74;55.55;93256.28;5032362;28;20041;-85
2022/09/11 02:31:11;;;;;;;0.70;0.70;;;;;;;20.73;55.57;93252.06;5014652;28;20044;-91
2022/09/11 02:33:37;;;;;;;1.27;0.70;;;;;;;20.71;55.52;93242.88;5048913;28;20067;-85
2022/09/11 02:36:21;;;;;;;1.58;0.80;;;;;;;20.73;55.70;93257.56;5048601;28;20045;-85
2022/09/11 02:39:01;;;;;;;1.23;0.73;;;;;;;20.73;55.69;93251.31;5017027;28;20120;-85
2022/09/11 02:41:31;;;;;;;0.75;0.65;;;;;;;20.73;55.64;93245.81;5047494;28;20036;-89
2022/09/11 02:44:08;;;;;;;0.75;0.60;;;;;;;20.72;55.75;93256.06;5031994;28;20037;-89
2022/09/11 02:46:42;;;;;;;1.52;0.70;;;;;;;20.73;55.60;93254.06;5031254;28;20029;-89
2022/09/11 02:49:14;;;;;;;0.80;0.75;;;;;;;20.73;55.80;93245.81;5045625;28;20055;-89
2022/09/11 02:51:42;;;;;;;1.23;0.70;;;;;;;20.73;55.57;93248.56;5065617;28;20060;-88
2022/09/11 02:54:16;;;;;;;1.48;0.70;;;;;;;20.71;55.74;93251.84;5044608;28;20041;-85
2022/09/11 02:56:46;;;;;;;0.88;0.73;;;;;;;20.73;55.51;93248.56;5059191;28;20047;-85
2022/09/11 02:59:16;;;;;;;;;;;;;;;20.76;55.46;93247.53;5064789;28;20518;-86
2022/09/11 03:01:47;;;;;;;1.02;0.70;;;;;;;20.74;55.53;93250.78;5030566;28;19932;-87
2022/09/11 03:04:14;;;;;;;1.23;0.77;;;;;;;20.71;55.60;93240.88;5003549;28;20045;-84
2022/09/11 03:06:42;;;;;;;2.45;0.80;;;;;;;20.73;55.60;93254.06;5057029;28;20037;-86
2022/09/11 03:09:08;;;;;;;1.10;1.00;;;;;;;20.72;55.54;93247.84;5064062;28;20040;-91
2022/09/11 03:11:34;;;;;;;1.05;0.60;;;;;;;20.71;55.59;93249.09;5025986;28;20037;-85
2022/09/11 03:14:00;;;;;;;0.60;0.60;;;;;;;20.72;55.67;93252.59;5036013;28;20094;-91
2022/09/11 03:16:25;;;;;;;1.10;0.82;;;;;;;20.71;55.38;93251.13;5027151;28;20041;-92
2022/09/11 03:18:52;;;;;;;1.48;0.60;;;;;;;20.72;55.72;93252.59;5029541;28;20114;-87
2022/09/11 03:21:18;;;;;;;1.17;0.77;;;;;;;20.71;55.53;93251.13;5030731;28;20033;-85
2022/09/11 03:23:43;;;;;;;0.82;0.60;;;;;;;20.69;55.77;93248.88;5031130;28;20041;-85
2022/09/11 03:26:09;;;;;;;1.60;0.70;;;;;;;20.72;55.56;93249.84;5063287;28;20112;-92
2022/09/11 03:28:34;;;;;;;1.85;0.80;;;;;;;20.70;55.59;93255.88;5026908;28;20041;-91
2022/09/11 03:31:00;;;;;;;1.10;0.70;;;;;;;20.70;55.68;93255.88;5010597;28;20069;-87
2022/09/11 03:33:26;;;;;;;0.88;0.70;;;;;;;20.69;55.70;93240.66;5031507;28;20044;-85
2022/09/11 03:35:52;;;;;;;0.82;0.68;;;;;;;20.69;55.47;93251.63;5028110;28;20072;-85
2022/09/11 03:38:17;;;;;;;1.05;0.70;;;;;;;20.69;55.64;93251.63;5040131;28;20029;-89
2022/09/11 03:40:44;;;;;;;1.33;0.60;;;;;;;20.70;55.38;93247.63;5030599;28;20041;-91
2022/09/11 03:43:11;;;;;;;2.55;0.80;;;;;;;20.70;55.71;93255.13;5046563;28;20049;-87
2022/09/11 03:45:37;;;;;;;0.73;0.70;;;;;;;20.72;55.29;93250.59;5048830;28;20044;-88
2022/09/11 03:48:03;;;;;;;1.02;0.65;;;;;;;20.70;55.40;93253.13;5030353;28;20041;-85
2022/09/11 03:50:28;;;;;;;1.77;0.70;;;;;;;20.69;55.32;93242.66;5029661;28;20523;-85
2022/09/11 03:52:54;;;;;;;1.75;0.70;;;;;;;20.68;55.61;93252.16;5047253;28;20114;-91
2022/09/11 03:55:19;;;;;;;0.77;0.52;;;;;;;20.69;55.52;93242.66;5029451;28;20040;-86
2022/09/11 03:57:45;;;;;;;0.65;0.60;;;;;;;20.68;55.70;93241.91;5026962;28;20045;-86
2022/09/11 04:00:10;;;;;;;0.75;0.63;;;;;;;20.69;55.66;93239.91;4993878;28;20030;-84
2022/09/11 04:02:36;;;;;;;0.60;0.55;;;;;;;20.69;55.61;93240.66;5025084;28;20162;-88
2022/09/11 04:05:03;;;;;;;0.63;0.57;;;;;;;20.68;55.68;93246.66;5010586;28;20051;-90
2022/09/11 04:07:29;;;;;;;0.50;0.50;;;;;;;20.69;55.42;93248.88;5030208;28;20037;-91
2022/09/11 04:09:56;;;;;;;1.13;0.77;;;;;;;20.69;55.44;93245.41;5029676;28;20029;-85
2022/09/11 04:12:21;;;;;;;0.95;0.85;;;;;;;20.68;55.74;93241.19;5046598;28;20496;-92
2022/09/11 04:14:49;;;;;;;0.82;0.60;;;;;;;20.69;55.37;93248.88;5024914;28;20139;-86
2022/09/11 04:17:14;;;;;;;0.65;0.60;;;;;;;20.68;55.61;93252.16;5001916;28;20037;-87
2022/09/11 04:19:40;;;;;;;2.45;1.08;;;;;;;20.68;56.17;93244.66;5009461;28;20045;-85
2022/09/11 04:22:05;;;;;;;0.70;0.70;;;;;;;20.68;55.59;93252.91;5004739;28;20041;-92
2022/09/11 04:24:30;;;;;;;0.80;0.60;;;;;;;20.68;55.58;93254.91;5022290;28;20034;-89
2022/09/11 04:26:58;;;;;;;0.95;0.80;;;;;;;20.67;55.45;93251.44;5012689;28;20045;-84
2022/09/11 04:29:25;;;;;;;1.00;0.73;;;;;;;20.67;55.66;93251.44;5040642;28;20033;-90
2022/09/11 04:31:50;;;;;;;1.15;0.70;;;;;;;20.66;55.54;93252.69;5005501;28;20038;-89
2022/09/11 04:34:16;;;;;;;1.35;0.95;;;;;;;20.66;55.74;93255.44;5005800;28;20045;-85
2022/09/11 04:36:42;;;;;;;1.02;0.68;;;;;;;20.67;55.79;93258.94;5009174;28;20148;-88
2022/09/11 04:39:08;;;;;;;2.00;0.70;;;;;;;20.65;55.71;93253.97;4990509;28;20080;-85
2022/09/11 04:41:33;;;;;;;0.50;0.50;;;;;;;20.66;55.60;93243.72;5008116;28;20452;-85
2022/09/11 04:44:00;;;;;;;1.45;0.88;;;;;;;20.67;55.67;93261.66;5007692;28;20811;-85
2022/09/11 04:46:25;;;;;;;0.88;0.60;;;;;;;20.65;55.83;93253.97;5042761;28;20091;-91
2022/09/11 04:48:53;;;;;;;0.68;0.60;;;;;;;20.65;55.55;93258.72;5057356;28;20037;-86
2022/09/11 04:51:23;;;;;;;1.02;0.50;;;;;;;20.64;55.70;93260.72;5012698;28;20442;-91
2022/09/11 04:53:49;;;;;;;0.60;0.57;;;;;;;20.63;55.69;93259.25;5013608;28;20148;-85
2022/09/11 04:56:14;;;;;;;1.15;0.88;;;;;;;20.64;55.51;93255.22;5028753;28;20465;-84
2022/09/11 04:58:41;;;;;;;0.75;0.50;;;;;;;20.62;55.61;93257.75;5010375;28;20038;-90
2022/09/11 05:01:10;;;;;;;0.70;0.70;;;;;;;20.64;55.72;93255.22;5045695;28;20057;-91
2022/09/11 05:03:35;;;;;;;2.80;0.63;;;;;;;20.66;55.52;93258.19;5045492;28;20064;-85
2022/09/11 05:06:07;;;;;;;0.80;0.57;;;;;;;20.66;55.47;93262.94;5008642;28;20033;-85
2022/09/11 05:08:33;;;;;;;0.90;0.50;;;;;;;20.65;55.47;93259.44;5014711;28;20114;-89
2022/09/11 05:10:59;;;;;;;0.88;0.60;;;;;;;20.65;55.50;93264.94;5029828;28;20059;-84
2022/09/11 05:13:26;;;;;;;0.93;0.60;;;;;;;20.66;55.78;93268.44;5045180;28;20037;-86
2022/09/11 05:15:52;;;;;;;0.52;0.52;;;;;;;20.64;55.68;93270.97;5029437;28;20112;-90
2022/09/11 05:18:18;;;;;;;1.00;0.75;;;;;;;20.64;55.73;93266.22;5045683;28;20052;-85
2022/09/11 05:20:43;;;;;;;1.13;0.75;;;;;;;20.64;55.53;93271.72;5029315;28;20401;-85
2022/09/11 05:23:10;;;;;;;1.00;0.80;;;;;;;20.64;55.38;93268.97;5045118;28;20041;-85
2022/09/11 05:25:36;;;;;;;1.08;0.70;;;;;;;20.65;55.55;93270.44;5044520;28;20142;-87
2022/09/11 05:28:03;;;;;;;0.60;0.60;;;;;;;20.65;55.74;93278.69;5029336;28;20455;-85
2022/09/11 05:30:29;;;;;;;0.75;0.50;;;;;;;20.65;55.56;93275.19;5046683;28;20052;-86
2022/09/11 05:32:55;;;;;;;0.90;0.88;;;;;;;20.66;55.57;93271.19;5033225;28;20067;-87
2022/09/11 05:35:23;;;;;;;0.88;0.70;;;;;;;20.65;55.61;93280.69;5015943;28;20045;-85
2022/09/11 05:37:48;;;;;;;0.85;0.60;;;;;;;20.66;55.43;93276.66;5019528;28;20033;-85
2022/09/11 05:40:14;;;;;;;0.80;0.52;;;;;;;20.67;55.64;93267.16;5048859;28;20037;-87
2022/09/11 05:42:39;;;;;;;0.80;0.60;;;;;;;20.64;55.38;93281.94;5001865;28;20091;-88
2022/09/11 05:45:05;;;;;;;1.00;0.70;;;;;;;20.63;55.58;93281.22;5012717;28;20037;-86
2022/09/11 05:47:30;;;;;;;1.15;0.75;;;;;;;20.64;55.45;93279.22;5029484;28;20063;-85
2022/09/11 05:49:56;;;;;;;0.50;0.40;;;;;;;20.63;55.61;93278.47;5055009;28;20484;-84
2022/09/11 05:52:24;;;;;;;1.23;0.68;;;;;;;20.62;55.30;93279.72;5046912;28;20484;-84
2022/09/11 05:54:52;;;;;;;1.05;0.60;;;;;;;20.63;55.37;93278.47;5010106;28;20064;-88
2022/09/11 05:57:18;;;;;;;0.85;0.60;;;;;;;20.64;55.53;93282.69;5026358;28;20128;-84
2022/09/11 05:59:44;;;;;;;1.05;0.70;;;;;;;20.63;55.45;93285.97;5011243;28;20120;-90
2022/09/11 06:02:10;;;;;;;2.75;0.88;;;;;;;20.63;55.41;93286.72;5026774;28;20436;-85
2022/09/11 06:04:35;;;;;;;1.38;0.60;;;;;;;20.64;55.64;93292.94;5011497;28;20045;-85
2022/09/11 06:07:01;;;;;;;2.13;0.80;;;;;;;20.63;55.58;93286.72;4994185;28;20556;-91
2022/09/11 06:09:26;;;;;;;1.02;0.60;;;;;;;20.62;55.43;93284.50;5027258;28;20113;-85
2022/09/11 06:11:52;;;;;;;1.02;0.80;;;;;;;20.64;55.58;93293.69;4993919;28;20037;-85
2022/09/11 06:14:17;;;;;;;0.57;0.57;;;;;;;20.63;55.46;93283.22;5017156;28;20076;-91
2022/09/11 06:16:42;;;;;;;1.00;0.60;;;;;;;20.65;55.62;93283.44;5011084;28;20459;-87
2022/09/11 06:19:08;;;;;;;1.58;0.60;;;;;;;20.64;55.45;93290.19;4994545;28;20046;-88
2022/09/11 06:21:34;;;;;;;0.88;0.63;;;;;;;20.64;55.56;93284.69;4993533;28;20042;-85
2022/09/11 06:23:59;;;;;;;1.67;0.90;;;;;;;20.64;55.57;93287.44;5054808;28;20040;-86
2022/09/11 06:26:25;;;;;;;1.23;0.60;;;;;;;20.64;55.61;93284.69;5030068;28;20045;-85
2022/09/11 06:28:50;;;;;;;1.15;0.68;;;;;;;20.64;55.56;93290.94;5027359;28;20532;-85
2022/09/11 06:31:19;;;;;;;0.63;0.50;;;;;;;20.63;55.51;93283.97;5055942;28;20411;-89
2022/09/11 06:33:44;;;;;;;1.13;0.73;;;;;;;20.66;55.43;93301.41;5027975;28;20037;-84
2022/09/11 06:36:15;;;;;;;1.25;0.80;;;;;;;20.65;55.49;93295.16;5026599;28;20064;-85
2022/09/11 06:38:41;;;;;;;0.93;0.70;;;;;;;20.62;55.75;93287.97;5053143;28;20040;-84
2022/09/11 06:41:11;;;;;;;0.45;0.40;;;;;;;20.64;55.50;93290.94;5014053;28;20033;-91
2022/09/11 06:43:36;;;;;;;0.85;0.50;;;;;;;20.65;55.54;93297.16;5031779;28;20037;-85
2022/09/11 06:46:06;;;;;;;1.35;0.68;;;;;;;20.64;55.48;93290.19;5015437;28;20380;-84
2022/09/11 06:48:32;;;;;;;0.97;0.73;;;;;;;20.65;55.48;93286.91;5031173;28;20083;-89
2022/09/11 06:51:02;;;;;;;1.48;0.82;;;;;;;20.66;55.47;93282.16;5014579;28;20274;-84
2022/09/11 06:53:27;;;;;;;1.30;0.68;;;;;;;20.65;55.61;93286.19;5047298;28;20514;-84
2022/09/11 06:55:56;;;;;;;1.20;0.73;;;;;;;20.66;55.41;93282.91;5047911;28;20041;-88
2022/09/11 06:58:22;;;;;;;0.90;0.70;;;;;;;20.64;55.43;93282.69;5012304;28;20106;-90
2022/09/11 07:00:48;;;;;;;1.80;0.60;;;;;;;20.65;55.49;93277.94;5030662;28;20124;-85
2022/09/11 07:03:14;;;;;;;0.60;0.57;;;;;;;20.65;55.47;93275.19;5035681;28;20040;-85
2022/09/11 07:05:45;;;;;;;0.75;0.60;;;;;;;20.64;55.49;93276.47;5031169;28;20549;-85
2022/09/11 07:08:11;;;;;;;0.73;0.60;;;;;;;20.67;55.60;93286.41;5010985;28;20041;-85
2022/09/11 07:10:36;;;;;;;0.93;0.80;;;;;;;20.64;55.51;93279.94;5030142;28;20049;-88
2022/09/11 07:13:02;;;;;;;0.93;0.77;;;;;;;20.64;55.67;93287.44;5031300;28;20044;-86
2022/09/11 07:15:27;;;;;;;0.57;0.43;;;;;;;20.67;55.55;93289.13;5030035;28;20032;-88
2022/09/11 07:17:54;;;;;;;1.30;0.63;;;;;;;20.64;55.51;93288.19;5030844;28;20071;-86
2022/09/11 07:20:19;;;;;;;0.63;0.60;;;;;;;20.64;55.54;93290.94;5036629;28;20029;-86
2022/09/11 07:22:45;;;;;;;0.63;0.55;;;;;;;20.66;55.38;93287.66;5034095;28;20042;-90
2022/09/11 07:25:11;;;;;;;0.50;0.50;;;;;;;20.64;55.67;93290.94;5043701;28;20029;-85
2022/09/11 07:27:36;;;;;;;0.65;0.60;;;;;;;20.64;55.73;93298.44;5021840;28;20044;-90
2022/09/11 07:30:02;;;;;;;1.42;0.52;;;;;;;20.66;55.43;93295.91;5045960;28;20432;-85
2022/09/11 07:32:29;;;;;;;0.98;0.68;;;;;;;20.63;55.59;93294.22;5021232;28;20032;-88
2022/09/11 07:34:55;;;;;;;0.70;0.60;;;;;;;20.67;55.30;93302.88;5043728;28;20037;-91
2022/09/11 07:37:20;;;;;;;0.70;0.60;;;;;;;20.67;55.42;93311.13;5012797;28;20048;-89
2022/09/11 07:39:46;;;;;;;1.10;0.60;;;;;;;20.65;55.48;93302.66;5026725;28;20044;-86
2022/09/11 07:42:11;;;;;;;1.58;0.50;;;;;;;20.65;55.28;93299.91;5033671;28;20044;-86
2022/09/11 07:44:37;;;;;;;0.60;0.60;;;;;;;20.66;55.78;93302.13;5014558;28;20037;-85
2022/09/11 07:47:03;;;;;;;0.85;0.60;;;;;;;20.64;55.37;93307.41;5009361;28;20048;-92
2022/09/11 07:49:28;;;;;;;0.50;0.50;;;;;;;20.68;55.51;93307.84;5025833;28;20072;-91
2022/09/11 07:51:54;;;;;;;1.30;0.70;;;;;;;20.66;55.48;93309.63;4992247;28;20096;-88
2022/09/11 07:54:20;;;;;;;1.10;0.60;;;;;;;20.64;55.60;93310.16;5005722;28;20111;-86
2022/09/11 07:56:46;;;;;;;0.90;0.63;;;;;;;20.65;55.43;93319.88;5008470;28;20038;-86
2022/09/11 07:59:11;;;;;;;0.70;0.60;;;;;;;20.65;55.41;93311.63;5005771;28;20077;-85
2022/09/11 08:01:37;;;;;;;0.45;0.45;;;;;;;20.65;55.66;93322.63;4973156;28;20042;-85
2022/09/11 08:04:05;;;;;;;1.73;0.75;;;;;;;20.64;55.56;93318.41;5010028;28;20041;-86
2022/09/11 08:06:32;;;;;;;0.77;0.65;;;;;;;20.64;55.45;93325.91;4989944;28;20508;-84
2022/09/11 08:09:02;;;;;;;0.47;0.47;;;;;;;20.65;55.66;93322.63;5022089;28;20046;-86
2022/09/11 08:11:28;;;;;;;0.80;0.52;;;;;;;20.65;55.63;93324.63;5013368;28;20123;-90
2022/09/11 08:13:53;;;;;;;0.93;0.55;;;;;;;20.66;55.37;93323.38;5021538;28;20130;-85
2022/09/11 08:16:23;;;;;;;1.30;0.80;;;;;;;20.66;55.47;93323.38;5024784;28;20045;-88
2022/09/11 08:18:49;;;;;;;0.45;0.40;;;;;;;20.63;55.59;93322.41;5028688;28;20539;-93
2022/09/11 08:21:14;;;;;;;0.50;0.50;;;;;;;20.63;55.76;93325.16;5026558;28;20041;-88
2022/09/11 08:23:41;;;;;;;0.80;0.70;;;;;;;20.64;55.62;93323.91;5026806;28;20041;-87
2022/09/11 08:26:07;;;;;;;1.08;0.65;;;;;;;20.67;55.43;93324.84;5044233;28;20046;-85
2022/09/11 08:28:32;;;;;;;1.38;0.60;;;;;;;20.65;55.66;93325.38;5077962;28;20021;-88
2022/09/11 08:30:58;;;;;;;0.90;0.57;;;;;;;20.65;55.55;93327.38;4998319;28;20137;-85
2022/09/11 08:33:24;;;;;;;1.25;0.80;;;;;;;20.64;55.50;93323.91;4998439;28;20037;-85
2022/09/11 08:35:49;;;;;;;1.30;0.60;;;;;;;20.63;55.49;93329.91;5043452;28;20037;-86
2022/09/11 08:38:15;;;;;;;0.77;0.70;;;;;;;20.64;55.45;93328.66;5027641;28;20045;-89
2022/09/11 08:40:40;;;;;;;0.70;0.60;;;;;;;20.63;55.69;93322.41;5046439;28;20503;-92
2022/09/11 08:43:09;;;;;;;0.70;0.60;;;;;;;20.65;55.34;93335.63;5031195;28;20074;-88
2022/09/11 08:45:35;;;;;;;0.88;0.50;;;;;;;20.67;55.46;93333.09;5031635;28;20036;-89
2022/09/11 08:48:00;;;;;;;0.60;0.50;;;;;;;20.66;55.50;93329.59;5031292;28;20067;-90
2022/09/11 08:50:30;;;;;;;0.85;0.70;;;;;;;20.67;55.42;93331.09;5048274;28;20159;-91
2022/09/11 08:52:55;;;;;;;0.68;0.60;;;;;;;20.66;55.54;93326.13;5028454;28;20037;-87
2022/09/11 08:55:27;;;;;;;1.40;0.60;;;;;;;20.70;55.49;93334.78;5014436;28;20043;-90
2022/09/11 08:58:01;;;;;;;0.82;0.63;;;;;;;20.67;55.46;93325.59;5028330;28;20045;-84
2022/09/11 09:00:31;;;;;;;0.40;0.40;;;;;;;20.68;55.50;93312.59;5028526;28;20060;-91
2022/09/11 09:03:17;;;;;;;1.02;0.55;;;;;;;20.68;55.42;93329.06;5015407;28;20048;-86
2022/09/11 09:06:00;;;;;;;0.85;0.60;;;;;;;20.68;55.54;93326.31;5019847;28;20040;-88
2022/09/11 09:08:44;;;;;;;0.77;0.45;;;;;;;20.68;55.47;93323.59;5011970;28;20045;-88
2022/09/11 09:11:35;;;;;;;0.43;0.43;;;;;;;20.68;55.64;93329.06;5016724;28;20038;-91
2022/09/11 09:14:05;;;;;;;0.40;0.40;;;;;;;20.67;55.35;93324.84;5028481;28;20415;-92
2022/09/11 09:16:46;;;;;;;0.47;0.47;;;;;;;20.68;55.41;93313.34;5027440;28;20094;-92
2022/09/11 09:19:29;;;;;;;1.67;0.70;;;;;;;20.68;55.47;93313.34;5019956;28;20074;-89
2022/09/11 09:22:11;;;;;;;2.17;0.52;;;;;;;20.67;55.77;93327.59;5024647;28;20316;-87
2022/09/11 09:24:41;;;;;;;0.50;0.50;;;;;;;20.65;55.58;93327.38;5035488;28;20051;-86
2022/09/11 09:27:10;;;;;;;0.75;0.40;;;;;;;20.66;55.72;93334.34;5012896;28;20040;-89
2022/09/11 09:29:37;;;;;;;1.27;0.55;;;;;;;20.64;55.61;93326.63;5013543;28;20037;-86
2022/09/11 09:32:06;;;;;;;0.43;0.40;;;;;;;20.66;55.53;93329.59;5029474;28;20045;-88
2022/09/11 09:34:34;;;;;;;0.73;0.50;;;;;;;20.67;55.46;93333.09;5033889;28;20030;-86
2022/09/11 09:37:19;;;;;;;1.02;0.63;;;;;;;20.67;55.52;93336.56;4996661;28;20056;-86
2022/09/11 09:39:44;;;;;;;1.10;0.50;;;;;;;20.66;55.61;93331.59;5018890;28;20492;-90
2022/09/11 09:42:37;;;;;;;1.10;0.60;;;;;;;20.67;55.48;93335.84;5026894;28;20042;-87
2022/09/11 09:45:09;;;;;;;0.77;0.63;;;;;;;20.67;55.64;93330.34;5018519;28;20052;-89
2022/09/11 09:47:36;;;;;;;0.80;0.60;;;;;;;20.69;55.65;93339.53;5010612;28;20049;-86
2022/09/11 09:50:01;;;;;;;0.93;0.40;;;;;;;20.67;55.52;93339.31;5026020;28;20057;-85
2022/09/11 09:52:32;;;;;;;0.65;0.43;;;;;;;20.67;55.62;93333.81;5035238;28;20045;-86
2022/09/11 09:55:01;;;;;;;0.63;0.50;;;;;;;20.69;55.51;93325.81;4983814;28;20502;-86
2022/09/11 09:57:33;;;;;;;0.93;0.60;;;;;;;20.68;55.68;93334.56;5012716;28;20048;-86
2022/09/11 10:00:05;;;;;;;0.60;0.52;;;;;;;20.67;55.62;93331.09;4997938;28;20045;-86
2022/09/11 10:02:52;;;;;;;1.58;0.63;;;;;;;20.68;55.57;93338.06;5009697;28;20037;-93
2022/09/11 10:05:29;;;;;;;1.10;0.45;;;;;;;20.67;55.49;93333.09;5012145;28;20752;-86
2022/09/11 10:07:59;;;;;;;0.47;0.47;;;;;;;20.67;55.55;93336.56;5010534;28;20049;-86
2022/09/11 10:10:26;;;;;;;0.95;0.40;;;;;;;20.67;55.43;93339.31;4993419;28;20577;-86
2022/09/11 10:13:07;;;;;;;0.75;0.68;;;;;;;20.68;55.59;93329.81;5031950;28;20045;-89
2022/09/11 10:15:37;;;;;;;0.63;0.50;;;;;;;20.67;55.68;93339.31;5013225;28;20052;-86
2022/09/11 10:18:27;;;;;;;0.93;0.82;;;;;;;20.68;55.41;93340.81;5038273;28;20069;-90
2022/09/11 10:20:57;;;;;;;0.60;0.40;;;;;;;20.68;55.32;93337.31;5030018;28;20045;-93
2022/09/11 10:23:28;;;;;;;1.40;0.60;;;;;;;20.68;55.55;93342.81;5011059;28;20045;-85
2022/09/11 10:25:53;;;;;;;0.60;0.40;;;;;;;20.69;55.56;93341.53;4985155;28;20049;-85
2022/09/11 10:28:27;;;;;;;0.65;0.55;;;;;;;20.68;55.60;93346.28;5010295;28;20037;-92
2022/09/11 10:30:58;;;;;;;1.25;0.70;;;;;;;20.69;55.65;93341.53;5009581;28;20042;-87
2022/09/11 10:33:27;;;;;;;1.98;0.50;;;;;;;20.69;55.67;93339.53;4977350;28;20042;-89
2022/09/11 10:35:57;;;;;;;0.93;0.60;;;;;;;20.68;55.57;93334.56;4998257;28;20041;-91
2022/09/11 10:38:28;;;;;;;0.40;0.40;;;;;;;20.70;55.33;93341.03;5012183;28;20498;-91
2022/09/11 10:41:08;;;;;;;0.50;0.32;;;;;;;20.68;55.58;93331.81;4992480;28;20535;-85
2022/09/11 10:43:37;;;;;;;0.40;0.40;;;;;;;20.70;55.77;93332.78;4983579;28;20072;-87
2022/09/11 10:46:17;;;;;;;1.63;0.70;;;;;;;20.69;55.47;93331.28;5024548;28;20084;-89
2022/09/11 10:48:54;;;;;;;1.05;0.57;;;;;;;20.71;55.44;93331.50;5006970;28;20077;-86
2022/09/11 10:51:19;;;;;;;1.52;0.50;;;;;;;20.72;55.50;93326.75;5010763;28;20044;-89
2022/09/11 10:54:22;;;;;;;0.50;0.50;;;;;;;20.73;55.48;93331.72;4994065;28;20037;-89
2022/09/11 10:57:16;;;;;;;0.73;0.47;;;;;;;20.73;55.43;93344.72;5027841;28;20055;-90
2022/09/11 10:59:54;;;;;;;0.57;0.55;;;;;;;20.73;55.54;93336.47;5027511;28;20034;-90
2022/09/11 11:02:27;;;;;;;0.70;0.40;;;;;;;20.73;55.48;93339.22;5027700;28;20034;-85
2022/09/11 11:04:53;;;;;;;0.70;0.60;;;;;;;20.73;55.57;93345.47;5027643;28;20034;-86
2022/09/11 11:07:35;;;;;;;0.80;0.47;;;;;;;20.73;55.53;93345.47;5027188;28;20156;-92
2022/09/11 11:10:16;;;;;;;1.00;0.60;;;;;;;20.73;55.49;93347.47;5027877;28;20046;-85
2022/09/11 11:12:48;;;;;;;;;;;;;;;20.76;55.65;93355.41;4997461;28;20042;-90
2022/09/11 11:15:20;;;;;;;0.50;0.50;;;;;;;20.73;55.69;93353.69;5043721;28;20412;-85
2022/09/11 11:17:53;;;;;;;0.98;0.47;;;;;;;20.73;55.66;93356.44;5028028;28;20045;-91
2022/09/11 11:20:27;;;;;;;0.45;0.45;;;;;;;20.75;55.65;93355.94;5011424;28;20045;-88
2022/09/11 11:23:11;;;;;;;0.57;0.50;;;;;;;20.73;55.56;93366.69;5024264;28;20501;-89
2022/09/11 11:26:06;;;;;;;0.77;0.57;;;;;;;20.72;55.77;93360.47;5029029;28;20053;-85
2022/09/11 11:28:47;;;;;;;1.45;0.40;;;;;;;20.73;55.82;93374.94;5042918;28;20033;-90
2022/09/11 11:31:21;;;;;;;0.70;0.60;;;;;;;20.73;55.71;93374.94;5014379;28;20044;-85
2022/09/11 11:34:08;;;;;;;1.50;0.50;;;;;;;20.73;55.76;93377.69;5047209;28;20086;-91
2022/09/11 11:36:39;;;;;;;0.95;0.65;;;;;;;20.73;55.69;93364.69;5047251;28;20036;-84
2022/09/11 11:39:16;;;;;;;0.63;0.40;;;;;;;20.72;55.67;93371.44;5046122;28;20083;-85
2022/09/11 11:41:46;;;;;;;1.58;0.40;;;;;;;20.73;55.70;93375.69;5043616;28;20037;-85
2022/09/11 11:44:16;;;;;;;0.55;0.50;;;;;;;20.73;55.56;93380.44;5046717;28;20033;-85